sensor_id;sensor_type;location;lat;lon;timestamp;P1;durP1;ratioP1;P2;durP2;ratioP2
5225;SDS011;2632;51.666;7.146;2023-06-22T00:00:10;11.30;;;7.23;;
5225;SDS011;2632;51.666;7.146;2023-06-22T00:02:38;10.63;;;7.20;;
5225;SDS011;2632;51.666;7.146;2023-06-22T00:05:05;11.30;;;7.90;;
5225;SDS011;2632;51.666;7.146;2023-06-22T00:07:32;16.17;;;8.30;;
5225;SDS011;2632;51.666;7.146;2023-06-22T00:09:58;11.10;;;8.10;;
5225;SDS011;2632;51.666;7.146;2023-06-22T00:12:25;12.50;;;8.47;;
5225;SDS011;2632;51.666;7.146;2023-06-22T00:14:52;10.80;;;7.67;;
5225;SDS011;2632;51.666;7.146;2023-06-22T00:17:18;12.67;;;8.10;;
5225;SDS011;2632;51.666;7.146;2023-06-22T00:19:46;9.63;;;7.23;;
5225;SDS011;2632;51.666;7.146;2023-06-22T00:22:14;12.83;;;8.30;;
5225;SDS011;2632;51.666;7.146;2023-06-22T00:24:40;12.90;;;8.90;;
5225;SDS011;2632;51.666;7.146;2023-06-22T00:27:07;10.87;;;8.50;;
5225;SDS011;2632;51.666;7.146;2023-06-22T00:29:34;11.97;;;8.10;;
5225;SDS011;2632;51.666;7.146;2023-06-22T00:32:01;12.73;;;8.47;;
5225;SDS011;2632;51.666;7.146;2023-06-22T00:34:27;10.70;;;7.67;;
5225;SDS011;2632;51.666;7.146;2023-06-22T00:36:54;10.43;;;7.80;;
5225;SDS011;2632;51.666;7.146;2023-06-22T00:39:21;9.40;;;7.80;;
5225;SDS011;2632;51.666;7.146;2023-06-22T00:41:47;12.83;;;8.80;;
5225;SDS011;2632;51.666;7.146;2023-06-22T00:44:14;15.20;;;8.50;;
5225;SDS011;2632;51.666;7.146;2023-06-22T00:46:40;13.07;;;8.67;;
5225;SDS011;2632;51.666;7.146;2023-06-22T00:49:07;12.37;;;8.97;;
5225;SDS011;2632;51.666;7.146;2023-06-22T00:51:34;16.50;;;9.40;;
5225;SDS011;2632;51.666;7.146;2023-06-22T00:54:04;14.40;;;9.20;;
5225;SDS011;2632;51.666;7.146;2023-06-22T00:56:32;11.73;;;8.47;;
5225;SDS011;2632;51.666;7.146;2023-06-22T00:58:59;12.20;;;8.50;;
5225;SDS011;2632;51.666;7.146;2023-06-22T01:01:28;13.20;;;9.23;;
5225;SDS011;2632;51.666;7.146;2023-06-22T01:03:55;14.50;;;9.27;;
5225;SDS011;2632;51.666;7.146;2023-06-22T01:06:26;12.23;;;8.80;;
5225;SDS011;2632;51.666;7.146;2023-06-22T01:09:06;9.50;;;8.03;;
5225;SDS011;2632;51.666;7.146;2023-06-22T01:11:41;13.07;;;9.60;;
5225;SDS011;2632;51.666;7.146;2023-06-22T01:14:14;12.27;;;9.30;;
5225;SDS011;2632;51.666;7.146;2023-06-22T01:16:46;12.60;;;8.07;;
5225;SDS011;2632;51.666;7.146;2023-06-22T01:22:26;14.67;;;9.10;;
5225;SDS011;2632;51.666;7.146;2023-06-22T01:25:06;14.27;;;9.60;;
5225;SDS011;2632;51.666;7.146;2023-06-22T01:30:07;14.67;;;9.73;;
5225;SDS011;2632;51.666;7.146;2023-06-22T01:32:37;18.30;;;8.80;;
5225;SDS011;2632;51.666;7.146;2023-06-22T01:35:05;12.77;;;8.50;;
5225;SDS011;2632;51.666;7.146;2023-06-22T01:37:34;19.93;;;10.73;;
5225;SDS011;2632;51.666;7.146;2023-06-22T01:40:02;13.77;;;9.97;;
5225;SDS011;2632;51.666;7.146;2023-06-22T01:42:32;12.13;;;9.47;;
5225;SDS011;2632;51.666;7.146;2023-06-22T01:44:59;12.23;;;8.90;;
5225;SDS011;2632;51.666;7.146;2023-06-22T01:47:27;15.60;;;9.40;;
5225;SDS011;2632;51.666;7.146;2023-06-22T01:49:54;11.60;;;9.53;;
5225;SDS011;2632;51.666;7.146;2023-06-22T01:52:21;13.53;;;9.33;;
5225;SDS011;2632;51.666;7.146;2023-06-22T01:54:48;14.67;;;9.90;;
5225;SDS011;2632;51.666;7.146;2023-06-22T01:57:15;14.90;;;10.03;;
5225;SDS011;2632;51.666;7.146;2023-06-22T01:59:49;18.30;;;10.20;;
5225;SDS011;2632;51.666;7.146;2023-06-22T02:02:25;15.20;;;10.23;;
5225;SDS011;2632;51.666;7.146;2023-06-22T02:05:07;13.77;;;9.80;;
5225;SDS011;2632;51.666;7.146;2023-06-22T02:07:45;17.13;;;10.40;;
5225;SDS011;2632;51.666;7.146;2023-06-22T02:10:16;14.23;;;9.93;;
5225;SDS011;2632;51.666;7.146;2023-06-22T02:12:46;15.37;;;10.30;;
5225;SDS011;2632;51.666;7.146;2023-06-22T02:15:14;18.20;;;11.33;;
5225;SDS011;2632;51.666;7.146;2023-06-22T02:17:42;15.10;;;10.43;;
5225;SDS011;2632;51.666;7.146;2023-06-22T02:20:12;13.53;;;10.03;;
5225;SDS011;2632;51.666;7.146;2023-06-22T02:22:39;14.10;;;10.80;;
5225;SDS011;2632;51.666;7.146;2023-06-22T02:25:07;15.43;;;11.27;;
5225;SDS011;2632;51.666;7.146;2023-06-22T02:27:33;13.77;;;9.40;;
5225;SDS011;2632;51.666;7.146;2023-06-22T02:30:00;18.37;;;10.83;;
5225;SDS011;2632;51.666;7.146;2023-06-22T02:32:27;13.80;;;9.97;;
5225;SDS011;2632;51.666;7.146;2023-06-22T02:34:54;12.53;;;9.87;;
5225;SDS011;2632;51.666;7.146;2023-06-22T02:37:20;14.27;;;9.30;;
5225;SDS011;2632;51.666;7.146;2023-06-22T02:39:51;16.90;;;10.60;;
5225;SDS011;2632;51.666;7.146;2023-06-22T02:42:18;14.77;;;10.77;;
5225;SDS011;2632;51.666;7.146;2023-06-22T02:44:46;17.93;;;11.80;;
5225;SDS011;2632;51.666;7.146;2023-06-22T02:47:13;19.00;;;11.13;;
5225;SDS011;2632;51.666;7.146;2023-06-22T02:49:40;16.10;;;12.00;;
5225;SDS011;2632;51.666;7.146;2023-06-22T02:52:08;16.60;;;12.00;;
5225;SDS011;2632;51.666;7.146;2023-06-22T02:54:34;18.80;;;12.00;;
5225;SDS011;2632;51.666;7.146;2023-06-22T02:57:01;22.00;;;13.97;;
5225;SDS011;2632;51.666;7.146;2023-06-22T02:59:31;19.20;;;12.47;;
5225;SDS011;2632;51.666;7.146;2023-06-22T03:01:59;20.67;;;12.30;;
5225;SDS011;2632;51.666;7.146;2023-06-22T03:04:26;18.33;;;12.93;;
5225;SDS011;2632;51.666;7.146;2023-06-22T03:06:53;17.60;;;12.73;;
5225;SDS011;2632;51.666;7.146;2023-06-22T03:09:20;18.50;;;12.33;;
5225;SDS011;2632;51.666;7.146;2023-06-22T03:11:46;17.40;;;11.53;;
5225;SDS011;2632;51.666;7.146;2023-06-22T03:14:13;19.70;;;12.03;;
5225;SDS011;2632;51.666;7.146;2023-06-22T03:16:39;15.23;;;11.23;;
5225;SDS011;2632;51.666;7.146;2023-06-22T03:19:07;18.90;;;11.20;;
5225;SDS011;2632;51.666;7.146;2023-06-22T03:21:33;17.43;;;11.80;;
5225;SDS011;2632;51.666;7.146;2023-06-22T03:24:00;14.73;;;11.03;;
5225;SDS011;2632;51.666;7.146;2023-06-22T03:26:27;14.70;;;11.30;;
5225;SDS011;2632;51.666;7.146;2023-06-22T03:28:53;13.83;;;10.30;;
5225;SDS011;2632;51.666;7.146;2023-06-22T03:31:20;16.40;;;11.33;;
5225;SDS011;2632;51.666;7.146;2023-06-22T03:33:48;19.73;;;10.93;;
5225;SDS011;2632;51.666;7.146;2023-06-22T03:36:16;12.90;;;9.97;;
5225;SDS011;2632;51.666;7.146;2023-06-22T03:38:47;19.50;;;11.23;;
5225;SDS011;2632;51.666;7.146;2023-06-22T03:41:14;20.30;;;11.00;;
5225;SDS011;2632;51.666;7.146;2023-06-22T03:43:41;17.57;;;12.70;;
5225;SDS011;2632;51.666;7.146;2023-06-22T03:46:08;19.30;;;12.00;;
5225;SDS011;2632;51.666;7.146;2023-06-22T03:48:35;16.83;;;11.87;;
5225;SDS011;2632;51.666;7.146;2023-06-22T03:51:02;17.60;;;12.20;;
5225;SDS011;2632;51.666;7.146;2023-06-22T03:53:29;21.07;;;13.20;;
5225;SDS011;2632;51.666;7.146;2023-06-22T03:55:56;17.50;;;13.97;;
5225;SDS011;2632;51.666;7.146;2023-06-22T03:58:22;16.53;;;12.30;;
5225;SDS011;2632;51.666;7.146;2023-06-22T04:00:49;22.60;;;13.30;;
5225;SDS011;2632;51.666;7.146;2023-06-22T04:03:18;23.10;;;13.20;;
5225;SDS011;2632;51.666;7.146;2023-06-22T04:05:45;19.73;;;13.20;;
5225;SDS011;2632;51.666;7.146;2023-06-22T04:08:13;23.37;;;14.20;;
5225;SDS011;2632;51.666;7.146;2023-06-22T04:10:40;20.23;;;13.70;;
5225;SDS011;2632;51.666;7.146;2023-06-22T04:13:07;17.30;;;13.10;;
5225;SDS011;2632;51.666;7.146;2023-06-22T04:15:33;20.07;;;13.53;;
5225;SDS011;2632;51.666;7.146;2023-06-22T04:18:00;19.07;;;13.67;;
5225;SDS011;2632;51.666;7.146;2023-06-22T04:20:27;18.70;;;13.27;;
5225;SDS011;2632;51.666;7.146;2023-06-22T04:22:55;23.10;;;13.87;;
5225;SDS011;2632;51.666;7.146;2023-06-22T04:25:22;18.30;;;14.03;;
5225;SDS011;2632;51.666;7.146;2023-06-22T04:27:49;22.63;;;14.80;;
5225;SDS011;2632;51.666;7.146;2023-06-22T04:30:16;26.60;;;14.27;;
5225;SDS011;2632;51.666;7.146;2023-06-22T04:32:43;24.67;;;15.90;;
5225;SDS011;2632;51.666;7.146;2023-06-22T04:35:11;19.73;;;14.20;;
5225;SDS011;2632;51.666;7.146;2023-06-22T04:37:38;24.57;;;14.80;;
5225;SDS011;2632;51.666;7.146;2023-06-22T04:40:05;22.13;;;14.00;;
5225;SDS011;2632;51.666;7.146;2023-06-22T04:42:33;20.67;;;14.23;;
5225;SDS011;2632;51.666;7.146;2023-06-22T04:45:02;22.10;;;14.77;;
5225;SDS011;2632;51.666;7.146;2023-06-22T04:47:30;20.20;;;14.40;;
5225;SDS011;2632;51.666;7.146;2023-06-22T04:49:56;18.73;;;14.23;;
5225;SDS011;2632;51.666;7.146;2023-06-22T04:52:23;20.43;;;13.67;;
5225;SDS011;2632;51.666;7.146;2023-06-22T04:54:50;19.00;;;13.53;;
5225;SDS011;2632;51.666;7.146;2023-06-22T04:57:21;18.70;;;13.90;;
5225;SDS011;2632;51.666;7.146;2023-06-22T04:59:59;20.53;;;13.80;;
5225;SDS011;2632;51.666;7.146;2023-06-22T05:02:38;18.93;;;13.87;;
5225;SDS011;2632;51.666;7.146;2023-06-22T05:05:05;18.87;;;13.57;;
5225;SDS011;2632;51.666;7.146;2023-06-22T05:07:33;19.00;;;13.30;;
5225;SDS011;2632;51.666;7.146;2023-06-22T05:10:01;22.30;;;14.13;;
5225;SDS011;2632;51.666;7.146;2023-06-22T05:12:31;19.63;;;13.60;;
5225;SDS011;2632;51.666;7.146;2023-06-22T05:14:58;18.57;;;12.03;;
5225;SDS011;2632;51.666;7.146;2023-06-22T05:17:24;17.20;;;12.77;;
5225;SDS011;2632;51.666;7.146;2023-06-22T05:19:51;19.77;;;13.67;;
5225;SDS011;2632;51.666;7.146;2023-06-22T05:22:18;21.63;;;13.03;;
5225;SDS011;2632;51.666;7.146;2023-06-22T05:24:45;20.20;;;13.57;;
5225;SDS011;2632;51.666;7.146;2023-06-22T05:27:13;21.33;;;13.70;;
5225;SDS011;2632;51.666;7.146;2023-06-22T05:29:40;19.83;;;13.20;;
5225;SDS011;2632;51.666;7.146;2023-06-22T05:32:08;20.30;;;13.57;;
5225;SDS011;2632;51.666;7.146;2023-06-22T05:34:35;18.70;;;13.90;;
5225;SDS011;2632;51.666;7.146;2023-06-22T05:37:02;21.07;;;13.40;;
5225;SDS011;2632;51.666;7.146;2023-06-22T05:39:29;20.73;;;13.07;;
5225;SDS011;2632;51.666;7.146;2023-06-22T05:41:55;22.73;;;13.87;;
5225;SDS011;2632;51.666;7.146;2023-06-22T05:44:22;19.27;;;13.67;;
5225;SDS011;2632;51.666;7.146;2023-06-22T05:46:49;16.70;;;12.70;;
5225;SDS011;2632;51.666;7.146;2023-06-22T05:49:16;18.70;;;13.33;;
5225;SDS011;2632;51.666;7.146;2023-06-22T05:51:42;23.10;;;13.77;;
5225;SDS011;2632;51.666;7.146;2023-06-22T05:54:09;21.03;;;12.20;;
5225;SDS011;2632;51.666;7.146;2023-06-22T05:56:36;18.60;;;11.83;;
5225;SDS011;2632;51.666;7.146;2023-06-22T05:59:03;22.13;;;13.80;;
5225;SDS011;2632;51.666;7.146;2023-06-22T06:01:30;19.23;;;14.20;;
5225;SDS011;2632;51.666;7.146;2023-06-22T06:04:04;21.67;;;13.77;;
5225;SDS011;2632;51.666;7.146;2023-06-22T06:06:36;19.97;;;13.50;;
5225;SDS011;2632;51.666;7.146;2023-06-22T06:09:04;21.97;;;14.77;;
5225;SDS011;2632;51.666;7.146;2023-06-22T06:11:30;19.70;;;14.27;;
5225;SDS011;2632;51.666;7.146;2023-06-22T06:13:57;22.03;;;14.40;;
5225;SDS011;2632;51.666;7.146;2023-06-22T06:16:24;21.00;;;14.70;;
5225;SDS011;2632;51.666;7.146;2023-06-22T06:18:50;27.73;;;14.57;;
5225;SDS011;2632;51.666;7.146;2023-06-22T06:21:19;22.03;;;14.87;;
5225;SDS011;2632;51.666;7.146;2023-06-22T06:23:46;18.83;;;14.00;;
5225;SDS011;2632;51.666;7.146;2023-06-22T06:26:13;20.33;;;14.37;;
5225;SDS011;2632;51.666;7.146;2023-06-22T06:28:43;23.00;;;15.00;;
5225;SDS011;2632;51.666;7.146;2023-06-22T06:31:09;20.13;;;14.90;;
5225;SDS011;2632;51.666;7.146;2023-06-22T06:33:38;22.60;;;14.30;;
5225;SDS011;2632;51.666;7.146;2023-06-22T06:36:05;20.07;;;14.57;;
5225;SDS011;2632;51.666;7.146;2023-06-22T06:38:31;24.97;;;15.53;;
5225;SDS011;2632;51.666;7.146;2023-06-22T06:40:58;25.77;;;17.10;;
5225;SDS011;2632;51.666;7.146;2023-06-22T06:43:25;25.60;;;16.27;;
5225;SDS011;2632;51.666;7.146;2023-06-22T06:45:52;24.03;;;15.27;;
5225;SDS011;2632;51.666;7.146;2023-06-22T06:48:19;22.37;;;16.10;;
5225;SDS011;2632;51.666;7.146;2023-06-22T06:50:45;28.00;;;18.10;;
5225;SDS011;2632;51.666;7.146;2023-06-22T06:53:12;24.10;;;16.60;;
5225;SDS011;2632;51.666;7.146;2023-06-22T06:55:39;26.87;;;17.10;;
5225;SDS011;2632;51.666;7.146;2023-06-22T06:58:05;24.70;;;16.60;;
5225;SDS011;2632;51.666;7.146;2023-06-22T07:00:34;23.30;;;16.07;;
5225;SDS011;2632;51.666;7.146;2023-06-22T07:03:01;23.40;;;16.23;;
5225;SDS011;2632;51.666;7.146;2023-06-22T07:05:28;20.23;;;15.07;;
5225;SDS011;2632;51.666;7.146;2023-06-22T07:07:55;25.50;;;15.70;;
5225;SDS011;2632;51.666;7.146;2023-06-22T07:10:22;24.40;;;16.30;;
5225;SDS011;2632;51.666;7.146;2023-06-22T07:12:48;22.90;;;15.80;;
5225;SDS011;2632;51.666;7.146;2023-06-22T07:15:15;22.93;;;16.60;;
5225;SDS011;2632;51.666;7.146;2023-06-22T07:17:44;21.17;;;16.40;;
5225;SDS011;2632;51.666;7.146;2023-06-22T07:20:11;28.10;;;16.97;;
5225;SDS011;2632;51.666;7.146;2023-06-22T07:22:39;26.60;;;16.80;;
5225;SDS011;2632;51.666;7.146;2023-06-22T07:25:06;21.20;;;15.20;;
5225;SDS011;2632;51.666;7.146;2023-06-22T07:27:45;21.87;;;15.57;;
5225;SDS011;2632;51.666;7.146;2023-06-22T07:30:29;22.63;;;15.20;;
5225;SDS011;2632;51.666;7.146;2023-06-22T07:32:57;24.00;;;15.57;;
5225;SDS011;2632;51.666;7.146;2023-06-22T07:35:24;23.43;;;15.10;;
5225;SDS011;2632;51.666;7.146;2023-06-22T07:37:51;20.47;;;16.17;;
5225;SDS011;2632;51.666;7.146;2023-06-22T07:40:18;20.70;;;15.93;;
5225;SDS011;2632;51.666;7.146;2023-06-22T07:42:44;23.93;;;15.77;;
5225;SDS011;2632;51.666;7.146;2023-06-22T07:45:14;25.33;;;15.30;;
5225;SDS011;2632;51.666;7.146;2023-06-22T07:47:40;22.53;;;16.27;;
5225;SDS011;2632;51.666;7.146;2023-06-22T07:50:07;23.67;;;16.17;;
5225;SDS011;2632;51.666;7.146;2023-06-22T07:52:34;23.77;;;15.70;;
5225;SDS011;2632;51.666;7.146;2023-06-22T07:55:01;22.57;;;16.70;;
5225;SDS011;2632;51.666;7.146;2023-06-22T07:57:28;23.17;;;15.60;;
5225;SDS011;2632;51.666;7.146;2023-06-22T08:00:03;25.23;;;15.43;;
5225;SDS011;2632;51.666;7.146;2023-06-22T08:02:39;20.87;;;15.10;;
5225;SDS011;2632;51.666;7.146;2023-06-22T08:05:07;22.47;;;15.67;;
5225;SDS011;2632;51.666;7.146;2023-06-22T08:07:47;21.93;;;15.07;;
5225;SDS011;2632;51.666;7.146;2023-06-22T08:10:14;21.20;;;15.17;;
5225;SDS011;2632;51.666;7.146;2023-06-22T08:12:41;21.67;;;15.80;;
5225;SDS011;2632;51.666;7.146;2023-06-22T08:15:08;22.23;;;15.77;;
5225;SDS011;2632;51.666;7.146;2023-06-22T08:17:36;20.73;;;14.97;;
5225;SDS011;2632;51.666;7.146;2023-06-22T08:20:04;22.67;;;15.00;;
5225;SDS011;2632;51.666;7.146;2023-06-22T08:22:41;23.77;;;15.20;;
5225;SDS011;2632;51.666;7.146;2023-06-22T08:25:08;22.00;;;15.20;;
5225;SDS011;2632;51.666;7.146;2023-06-22T08:27:35;22.63;;;15.87;;
5225;SDS011;2632;51.666;7.146;2023-06-22T08:30:03;22.03;;;15.63;;
5225;SDS011;2632;51.666;7.146;2023-06-22T08:32:32;21.57;;;15.63;;
5225;SDS011;2632;51.666;7.146;2023-06-22T08:34:59;19.87;;;14.37;;
5225;SDS011;2632;51.666;7.146;2023-06-22T08:37:26;18.67;;;14.80;;
5225;SDS011;2632;51.666;7.146;2023-06-22T08:39:59;22.07;;;15.23;;
5225;SDS011;2632;51.666;7.146;2023-06-22T08:42:27;20.33;;;14.87;;
5225;SDS011;2632;51.666;7.146;2023-06-22T08:44:54;21.43;;;14.83;;
5225;SDS011;2632;51.666;7.146;2023-06-22T08:47:21;22.33;;;15.77;;
5225;SDS011;2632;51.666;7.146;2023-06-22T08:49:48;22.67;;;14.27;;
5225;SDS011;2632;51.666;7.146;2023-06-22T08:52:16;17.30;;;13.23;;
5225;SDS011;2632;51.666;7.146;2023-06-22T08:54:44;22.77;;;13.47;;
5225;SDS011;2632;51.666;7.146;2023-06-22T08:57:11;19.47;;;13.73;;
5225;SDS011;2632;51.666;7.146;2023-06-22T08:59:38;18.23;;;13.40;;
5225;SDS011;2632;51.666;7.146;2023-06-22T09:02:05;18.13;;;13.00;;
5225;SDS011;2632;51.666;7.146;2023-06-22T09:04:32;22.37;;;14.23;;
5225;SDS011;2632;51.666;7.146;2023-06-22T09:07:01;17.50;;;12.53;;
5225;SDS011;2632;51.666;7.146;2023-06-22T09:09:29;18.10;;;12.60;;
5225;SDS011;2632;51.666;7.146;2023-06-22T09:11:55;19.80;;;13.30;;
5225;SDS011;2632;51.666;7.146;2023-06-22T09:14:22;17.77;;;13.37;;
5225;SDS011;2632;51.666;7.146;2023-06-22T09:16:48;20.87;;;13.70;;
5225;SDS011;2632;51.666;7.146;2023-06-22T09:19:15;15.80;;;12.90;;
5225;SDS011;2632;51.666;7.146;2023-06-22T09:21:42;18.60;;;12.93;;
5225;SDS011;2632;51.666;7.146;2023-06-22T09:24:08;18.87;;;13.50;;
5225;SDS011;2632;51.666;7.146;2023-06-22T09:26:35;19.53;;;12.97;;
5225;SDS011;2632;51.666;7.146;2023-06-22T09:29:04;20.40;;;14.07;;
5225;SDS011;2632;51.666;7.146;2023-06-22T09:31:33;18.70;;;13.23;;
5225;SDS011;2632;51.666;7.146;2023-06-22T09:34:00;25.63;;;13.50;;
5225;SDS011;2632;51.666;7.146;2023-06-22T09:36:26;23.40;;;12.40;;
5225;SDS011;2632;51.666;7.146;2023-06-22T09:38:53;19.83;;;13.10;;
5225;SDS011;2632;51.666;7.146;2023-06-22T09:41:24;19.57;;;13.30;;
5225;SDS011;2632;51.666;7.146;2023-06-22T09:43:51;19.67;;;13.53;;
5225;SDS011;2632;51.666;7.146;2023-06-22T09:46:21;16.50;;;12.73;;
5225;SDS011;2632;51.666;7.146;2023-06-22T09:48:51;19.87;;;13.50;;
5225;SDS011;2632;51.666;7.146;2023-06-22T09:51:17;17.87;;;12.77;;
5225;SDS011;2632;51.666;7.146;2023-06-22T09:53:46;17.97;;;12.77;;
5225;SDS011;2632;51.666;7.146;2023-06-22T09:56:12;18.10;;;13.87;;
5225;SDS011;2632;51.666;7.146;2023-06-22T09:58:44;18.30;;;13.60;;
5225;SDS011;2632;51.666;7.146;2023-06-22T10:01:12;21.43;;;12.43;;
5225;SDS011;2632;51.666;7.146;2023-06-22T10:03:42;17.33;;;12.90;;
5225;SDS011;2632;51.666;7.146;2023-06-22T10:06:09;22.03;;;13.77;;
5225;SDS011;2632;51.666;7.146;2023-06-22T10:08:36;20.13;;;12.47;;
5225;SDS011;2632;51.666;7.146;2023-06-22T10:11:03;19.73;;;13.37;;
5225;SDS011;2632;51.666;7.146;2023-06-22T10:13:30;18.60;;;12.97;;
5225;SDS011;2632;51.666;7.146;2023-06-22T10:15:56;19.77;;;13.50;;
5225;SDS011;2632;51.666;7.146;2023-06-22T10:18:23;19.63;;;13.33;;
5225;SDS011;2632;51.666;7.146;2023-06-22T10:20:50;18.27;;;13.60;;
5225;SDS011;2632;51.666;7.146;2023-06-22T10:23:20;19.20;;;13.83;;
5225;SDS011;2632;51.666;7.146;2023-06-22T10:25:47;15.00;;;13.00;;
5225;SDS011;2632;51.666;7.146;2023-06-22T10:28:14;17.90;;;12.67;;
5225;SDS011;2632;51.666;7.146;2023-06-22T10:30:41;20.33;;;12.07;;
5225;SDS011;2632;51.666;7.146;2023-06-22T10:33:08;18.10;;;11.53;;
5225;SDS011;2632;51.666;7.146;2023-06-22T10:35:36;16.57;;;12.20;;
5225;SDS011;2632;51.666;7.146;2023-06-22T10:38:04;20.30;;;12.50;;
5225;SDS011;2632;51.666;7.146;2023-06-22T10:40:31;15.87;;;11.77;;
5225;SDS011;2632;51.666;7.146;2023-06-22T10:42:58;15.27;;;10.90;;
5225;SDS011;2632;51.666;7.146;2023-06-22T10:45:25;21.20;;;12.23;;
5225;SDS011;2632;51.666;7.146;2023-06-22T10:47:51;22.87;;;12.67;;
5225;SDS011;2632;51.666;7.146;2023-06-22T10:50:18;15.60;;;11.10;;
5225;SDS011;2632;51.666;7.146;2023-06-22T10:52:46;17.40;;;12.60;;
5225;SDS011;2632;51.666;7.146;2023-06-22T10:55:12;15.70;;;11.10;;
5225;SDS011;2632;51.666;7.146;2023-06-22T10:57:39;14.83;;;11.43;;
5225;SDS011;2632;51.666;7.146;2023-06-22T11:00:10;19.13;;;11.33;;
5225;SDS011;2632;51.666;7.146;2023-06-22T11:02:37;18.30;;;12.00;;
5225;SDS011;2632;51.666;7.146;2023-06-22T11:05:04;14.90;;;10.33;;
5225;SDS011;2632;51.666;7.146;2023-06-22T11:07:31;15.40;;;11.60;;
5225;SDS011;2632;51.666;7.146;2023-06-22T11:09:59;16.13;;;11.17;;
5225;SDS011;2632;51.666;7.146;2023-06-22T11:12:25;15.20;;;11.57;;
5225;SDS011;2632;51.666;7.146;2023-06-22T11:14:52;13.90;;;10.40;;
5225;SDS011;2632;51.666;7.146;2023-06-22T11:17:19;12.57;;;9.77;;
5225;SDS011;2632;51.666;7.146;2023-06-22T11:19:45;15.50;;;11.90;;
5225;SDS011;2632;51.666;7.146;2023-06-22T11:22:12;15.43;;;11.30;;
5225;SDS011;2632;51.666;7.146;2023-06-22T11:24:39;14.07;;;10.90;;
5225;SDS011;2632;51.666;7.146;2023-06-22T11:27:05;15.33;;;11.57;;
5225;SDS011;2632;51.666;7.146;2023-06-22T11:29:32;15.83;;;10.80;;
5225;SDS011;2632;51.666;7.146;2023-06-22T11:32:04;16.80;;;12.20;;
5225;SDS011;2632;51.666;7.146;2023-06-22T11:34:31;18.70;;;11.30;;
5225;SDS011;2632;51.666;7.146;2023-06-22T11:36:58;16.43;;;11.43;;
5225;SDS011;2632;51.666;7.146;2023-06-22T11:39:25;17.40;;;12.90;;
5225;SDS011;2632;51.666;7.146;2023-06-22T11:42:08;17.60;;;12.80;;
5225;SDS011;2632;51.666;7.146;2023-06-22T11:44:35;15.93;;;11.57;;
5225;SDS011;2632;51.666;7.146;2023-06-22T11:47:02;18.13;;;12.60;;
5225;SDS011;2632;51.666;7.146;2023-06-22T11:49:30;18.73;;;12.57;;
5225;SDS011;2632;51.666;7.146;2023-06-22T11:51:57;17.23;;;13.20;;
5225;SDS011;2632;51.666;7.146;2023-06-22T11:54:24;21.47;;;12.93;;
5225;SDS011;2632;51.666;7.146;2023-06-22T11:56:50;22.50;;;14.53;;
5225;SDS011;2632;51.666;7.146;2023-06-22T11:59:17;26.00;;;15.97;;
5225;SDS011;2632;51.666;7.146;2023-06-22T12:01:45;21.93;;;14.43;;
5225;SDS011;2632;51.666;7.146;2023-06-22T12:04:12;22.47;;;14.80;;
5225;SDS011;2632;51.666;7.146;2023-06-22T12:06:39;26.23;;;15.93;;
5225;SDS011;2632;51.666;7.146;2023-06-22T12:09:08;29.40;;;15.57;;
5225;SDS011;2632;51.666;7.146;2023-06-22T12:11:35;21.60;;;15.50;;
5225;SDS011;2632;51.666;7.146;2023-06-22T12:14:02;23.43;;;16.33;;
5225;SDS011;2632;51.666;7.146;2023-06-22T12:16:28;24.60;;;15.70;;
5225;SDS011;2632;51.666;7.146;2023-06-22T12:18:55;24.50;;;16.70;;
5225;SDS011;2632;51.666;7.146;2023-06-22T12:21:22;26.47;;;18.20;;
5225;SDS011;2632;51.666;7.146;2023-06-22T12:23:49;32.83;;;19.10;;
5225;SDS011;2632;51.666;7.146;2023-06-22T12:26:16;29.80;;;18.63;;
5225;SDS011;2632;51.666;7.146;2023-06-22T12:28:42;32.23;;;19.87;;
5225;SDS011;2632;51.666;7.146;2023-06-22T12:31:09;32.30;;;19.53;;
5225;SDS011;2632;51.666;7.146;2023-06-22T12:33:36;33.73;;;20.70;;
5225;SDS011;2632;51.666;7.146;2023-06-22T12:36:02;32.70;;;19.67;;
5225;SDS011;2632;51.666;7.146;2023-06-22T12:38:31;28.67;;;20.00;;
5225;SDS011;2632;51.666;7.146;2023-06-22T12:40:57;32.30;;;20.50;;
5225;SDS011;2632;51.666;7.146;2023-06-22T12:43:24;31.17;;;20.20;;
5225;SDS011;2632;51.666;7.146;2023-06-22T12:45:51;32.77;;;21.37;;
5225;SDS011;2632;51.666;7.146;2023-06-22T12:48:17;31.70;;;21.07;;
5225;SDS011;2632;51.666;7.146;2023-06-22T12:50:44;36.00;;;23.03;;
5225;SDS011;2632;51.666;7.146;2023-06-22T12:53:11;32.50;;;21.40;;
5225;SDS011;2632;51.666;7.146;2023-06-22T12:55:38;37.20;;;23.33;;
5225;SDS011;2632;51.666;7.146;2023-06-22T12:58:05;34.37;;;21.10;;
5225;SDS011;2632;51.666;7.146;2023-06-22T13:00:32;35.23;;;22.20;;
5225;SDS011;2632;51.666;7.146;2023-06-22T13:02:58;33.00;;;21.10;;
5225;SDS011;2632;51.666;7.146;2023-06-22T13:05:25;37.90;;;22.60;;
5225;SDS011;2632;51.666;7.146;2023-06-22T13:07:52;35.63;;;22.40;;
5225;SDS011;2632;51.666;7.146;2023-06-22T13:10:18;35.17;;;22.07;;
5225;SDS011;2632;51.666;7.146;2023-06-22T13:12:45;35.10;;;23.40;;
5225;SDS011;2632;51.666;7.146;2023-06-22T13:15:12;33.53;;;22.63;;
5225;SDS011;2632;51.666;7.146;2023-06-22T13:17:39;33.90;;;22.50;;
5225;SDS011;2632;51.666;7.146;2023-06-22T13:20:05;35.93;;;21.30;;
5225;SDS011;2632;51.666;7.146;2023-06-22T13:22:33;35.37;;;23.00;;
5225;SDS011;2632;51.666;7.146;2023-06-22T13:25:06;31.30;;;21.03;;
5225;SDS011;2632;51.666;7.146;2023-06-22T13:27:36;32.73;;;22.13;;
5225;SDS011;2632;51.666;7.146;2023-06-22T13:30:02;35.23;;;21.93;;
5225;SDS011;2632;51.666;7.146;2023-06-22T13:32:29;31.90;;;21.30;;
5225;SDS011;2632;51.666;7.146;2023-06-22T13:34:57;30.70;;;21.83;;
5225;SDS011;2632;51.666;7.146;2023-06-22T13:37:25;38.50;;;23.97;;
5225;SDS011;2632;51.666;7.146;2023-06-22T13:39:52;38.50;;;23.80;;
5225;SDS011;2632;51.666;7.146;2023-06-22T13:42:18;43.83;;;24.07;;
5225;SDS011;2632;51.666;7.146;2023-06-22T13:44:45;39.67;;;24.20;;
5225;SDS011;2632;51.666;7.146;2023-06-22T13:47:12;36.40;;;23.10;;
5225;SDS011;2632;51.666;7.146;2023-06-22T13:49:38;36.03;;;24.10;;
5225;SDS011;2632;51.666;7.146;2023-06-22T13:52:05;36.47;;;23.60;;
5225;SDS011;2632;51.666;7.146;2023-06-22T13:54:36;37.20;;;24.10;;
5225;SDS011;2632;51.666;7.146;2023-06-22T13:57:03;35.47;;;23.37;;
5225;SDS011;2632;51.666;7.146;2023-06-22T13:59:30;34.57;;;23.27;;
5225;SDS011;2632;51.666;7.146;2023-06-22T14:01:56;37.23;;;24.87;;
5225;SDS011;2632;51.666;7.146;2023-06-22T14:04:23;35.57;;;23.63;;
5225;SDS011;2632;51.666;7.146;2023-06-22T14:06:50;34.50;;;23.30;;
5225;SDS011;2632;51.666;7.146;2023-06-22T14:09:19;40.00;;;24.80;;
5225;SDS011;2632;51.666;7.146;2023-06-22T14:11:46;38.37;;;24.47;;
5225;SDS011;2632;51.666;7.146;2023-06-22T14:14:13;37.10;;;23.17;;
5225;SDS011;2632;51.666;7.146;2023-06-22T14:16:39;40.63;;;25.93;;
5225;SDS011;2632;51.666;7.146;2023-06-22T14:19:06;37.70;;;24.97;;
5225;SDS011;2632;51.666;7.146;2023-06-22T14:21:32;35.83;;;22.57;;
5225;SDS011;2632;51.666;7.146;2023-06-22T14:23:59;34.43;;;23.13;;
5225;SDS011;2632;51.666;7.146;2023-06-22T14:26:26;38.43;;;24.73;;
5225;SDS011;2632;51.666;7.146;2023-06-22T14:28:52;38.47;;;23.13;;
5225;SDS011;2632;51.666;7.146;2023-06-22T14:31:19;36.37;;;21.93;;
5225;SDS011;2632;51.666;7.146;2023-06-22T14:33:46;33.43;;;23.00;;
5225;SDS011;2632;51.666;7.146;2023-06-22T14:36:14;34.50;;;22.33;;
5225;SDS011;2632;51.666;7.146;2023-06-22T14:38:42;37.20;;;23.37;;
5225;SDS011;2632;51.666;7.146;2023-06-22T14:41:09;31.97;;;23.30;;
5225;SDS011;2632;51.666;7.146;2023-06-22T14:43:44;34.80;;;23.23;;
5225;SDS011;2632;51.666;7.146;2023-06-22T14:46:12;35.10;;;22.97;;
5225;SDS011;2632;51.666;7.146;2023-06-22T14:48:41;34.03;;;21.50;;
5225;SDS011;2632;51.666;7.146;2023-06-22T14:51:08;32.13;;;23.10;;
5225;SDS011;2632;51.666;7.146;2023-06-22T14:53:38;33.70;;;23.00;;
5225;SDS011;2632;51.666;7.146;2023-06-22T14:56:05;36.27;;;23.47;;
5225;SDS011;2632;51.666;7.146;2023-06-22T14:58:32;33.27;;;22.47;;